Time;durP1;ratioP1;P1;durP2;ratioP2;P2;SDS_P1;SDS_P2;PMS_P1;PMS_P2;Temp;Humidity;BMP_temperature;BMP_pressure;BME280_temperature;BME280_humidity;BME280_pressure;Samples;Min_cycle;Max_cycle;Signal;HPM_P1;HPM_P2
2023/04/12 00:00:45;;;;;;;17.42;3.05;;;8.30;99.90;;;;;;5117358;28;20466;-60
2023/04/12 00:03:11;;;;;;;12.90;2.55;;;8.20;99.90;;;;;;5115938;28;20089;-60
2023/04/12 00:05:38;;;;;;;16.20;3.28;;;8.20;99.90;;;;;;5117512;28;20458;-59
2023/04/12 00:08:05;;;;;;;14.75;3.03;;;8.20;99.90;;;;;;5117726;28;20471;-60
2023/04/12 00:10:32;;;;;;;18.88;3.50;;;8.20;99.90;;;;;;5117613;28;20443;-60
2023/04/12 00:12:59;;;;;;;18.13;3.22;;;8.20;99.90;;;;;;5116823;28;20066;-60
2023/04/12 00:15:25;;;;;;;21.52;3.42;;;8.20;99.90;;;;;;5117162;28;20116;-60
2023/04/12 00:17:52;;;;;;;14.88;3.00;;;8.20;99.90;;;;;;5116928;28;20509;-60
2023/04/12 00:20:19;;;;;;;15.70;3.38;;;8.20;99.90;;;;;;5117150;28;20043;-60
2023/04/12 00:22:46;;;;;;;20.60;4.05;;;8.20;99.90;;;;;;5116226;28;20047;-60
2023/04/12 00:25:13;;;;;;;18.88;4.30;;;8.20;99.90;;;;;;5117246;28;20096;-59
2023/04/12 00:27:39;;;;;;;17.60;3.53;;;8.20;99.90;;;;;;5116849;28;20482;-60
2023/04/12 00:30:07;;;;;;;12.63;3.10;;;8.20;99.90;;;;;;5116479;28;20096;-60
2023/04/12 00:32:34;;;;;;;19.48;4.18;;;8.20;99.90;;;;;;5115176;28;20069;-60
2023/04/12 00:35:01;;;;;;;17.08;3.25;;;8.20;99.90;;;;;;5116601;28;20040;-61
2023/04/12 00:37:28;;;;;;;18.05;3.45;;;8.20;99.90;;;;;;5116669;28;20039;-59
2023/04/12 00:39:55;;;;;;;19.70;4.13;;;8.20;99.90;;;;;;5114907;28;20497;-61
2023/04/12 00:42:23;;;;;;;26.00;4.38;;;8.20;99.90;;;;;;5116510;28;20474;-57
2023/04/12 00:44:50;;;;;;;20.45;3.95;;;8.10;99.90;;;;;;5116527;27;20086;-60
2023/04/12 00:47:17;;;;;;;15.13;3.53;;;8.10;99.90;;;;;;5116636;28;20050;-60
2023/04/12 00:49:43;;;;;;;24.02;4.03;;;8.20;99.90;;;;;;5115834;28;20051;-61
2023/04/12 00:52:10;;;;;;;15.13;2.97;;;8.10;99.90;;;;;;5116660;28;20426;-61
2023/04/12 00:54:37;;;;;;;19.60;3.55;;;8.10;99.90;;;;;;5116655;28;20157;-60
2023/04/12 00:57:04;;;;;;;20.75;3.65;;;8.10;99.90;;;;;;5116380;28;20367;-60
2023/04/12 00:59:31;;;;;;;21.63;3.65;;;8.10;99.90;;;;;;5115242;28;20071;-60
2023/04/12 01:01:58;;;;;;;16.90;3.58;;;8.00;99.90;;;;;;5116457;28;20043;-61
2023/04/12 01:04:25;;;;;;;23.40;3.70;;;8.00;99.90;;;;;;5114444;28;20044;-60
2023/04/12 01:06:52;;;;;;;17.98;3.33;;;8.00;99.90;;;;;;5115145;28;20039;-61
2023/04/12 01:09:19;;;;;;;21.52;3.30;;;8.00;99.90;;;;;;5097809;28;20039;-60
2023/04/12 01:11:46;;;;;;;20.55;3.80;;;7.90;99.90;;;;;;5115065;28;20040;-59
2023/04/12 01:14:13;;;;;;;19.73;3.22;;;7.90;99.90;;;;;;5114521;28;20035;-60
2023/04/12 01:16:40;;;;;;;30.92;3.90;;;7.90;99.90;;;;;;5115164;28;20386;-60
2023/04/12 01:19:08;;;;;;;25.98;4.15;;;7.90;99.90;;;;;;5114321;28;20092;-58
2023/04/12 01:21:35;;;;;;;21.95;3.97;;;7.90;99.90;;;;;;5116260;28;20087;-58
2023/04/12 01:24:02;;;;;;;22.20;4.22;;;7.90;99.90;;;;;;5115722;28;20123;-59
2023/04/12 01:26:31;;;;;;;21.80;4.03;;;7.90;99.90;;;;;;5115932;28;20043;-61
2023/04/12 01:29:00;;;;;;;20.65;3.88;;;7.90;99.90;;;;;;5115395;28;20054;-59
2023/04/12 01:31:27;;;;;;;25.77;4.47;;;7.80;99.90;;;;;;5114477;28;20487;-59
2023/04/12 01:33:54;;;;;;;22.73;4.03;;;7.80;99.90;;;;;;5114494;28;20439;-59
2023/04/12 01:36:21;;;;;;;25.85;4.22;;;7.80;99.90;;;;;;5113980;28;20551;-60
2023/04/12 01:38:48;;;;;;;22.15;3.97;;;7.80;99.90;;;;;;5114243;28;20513;-61
2023/04/12 01:41:15;;;;;;;25.08;3.90;;;7.80;99.90;;;;;;5115474;28;20031;-60
2023/04/12 01:43:43;;;;;;;22.35;4.55;;;7.80;99.90;;;;;;5114115;28;20047;-60
2023/04/12 01:46:10;;;;;;;24.33;4.10;;;7.80;99.90;;;;;;5113714;28;20506;-59
2023/04/12 01:48:38;;;;;;;18.17;3.67;;;7.80;99.90;;;;;;5115593;28;20050;-57
2023/04/12 01:51:05;;;;;;;19.40;3.85;;;7.80;99.90;;;;;;5114862;28;20036;-60
2023/04/12 01:53:32;;;;;;;18.13;3.80;;;7.80;99.90;;;;;;5114726;28;20035;-59
2023/04/12 01:55:59;;;;;;;20.67;4.30;;;7.80;99.90;;;;;;5113957;28;20038;-61
2023/04/12 01:58:25;;;;;;;22.63;3.95;;;7.80;99.90;;;;;;5096650;28;20054;-60
2023/04/12 02:00:52;;;;;;;21.23;4.57;;;7.80;99.90;;;;;;5113560;28;20088;-60
2023/04/12 02:03:20;;;;;;;21.38;4.10;;;7.80;99.90;;;;;;5114672;28;20043;-60
2023/04/12 02:05:47;;;;;;;27.25;4.47;;;7.90;99.90;;;;;;5113613;28;20035;-60
2023/04/12 02:08:18;;;;;;;26.50;3.85;;;7.80;99.90;;;;;;5114125;28;20051;-59
2023/04/12 02:10:45;;;;;;;24.85;4.60;;;7.80;99.90;;;;;;5113434;28;20040;-60
2023/04/12 02:13:16;;;;;;;21.67;3.95;;;7.80;99.90;;;;;;5113123;28;20032;-59
2023/04/12 02:15:44;;;;;;;22.67;4.03;;;7.80;99.90;;;;;;5113338;28;20040;-61
2023/04/12 02:18:12;;;;;;;31.05;4.47;;;7.70;99.90;;;;;;5113446;28;20089;-60
2023/04/12 02:20:40;;;;;;;22.80;4.20;;;7.70;99.90;;;;;;5096562;28;20044;-61
2023/04/12 02:23:07;;;;;;;30.10;4.80;;;7.70;99.90;;;;;;5114578;28;20490;-59
2023/04/12 02:25:35;;;;;;;21.00;3.67;;;7.70;99.90;;;;;;5112945;28;20522;-61
2023/04/12 02:28:02;;;;;;;22.23;4.15;;;7.70;99.90;;;;;;5113066;28;20557;-59
2023/04/12 02:30:29;;;;;;;21.27;4.60;;;7.70;99.90;;;;;;5112838;28;20071;-59
2023/04/12 02:32:56;;;;;;;22.15;4.78;;;7.60;99.90;;;;;;5114568;28;20108;-60
2023/04/12 02:35:27;;;;;;;29.75;4.50;;;7.60;99.90;;;;;;5113208;28;20036;-61
2023/04/12 02:38:07;;;;;;;19.27;4.22;;;7.60;99.90;;;;;;5113038;28;20043;-58
2023/04/12 02:40:36;;;;;;;26.58;4.82;;;7.60;99.90;;;;;;5113446;28;20047;-59
2023/04/12 02:43:04;;;;;;;34.65;4.68;;;7.70;99.90;;;;;;5112835;28;20044;-58
2023/04/12 02:45:31;;;;;;;21.05;4.85;;;7.70;99.90;;;;;;5112126;28;20108;-57
2023/04/12 02:47:58;;;;;;;24.70;4.07;;;7.60;99.90;;;;;;5112831;28;20062;-56
2023/04/12 02:50:28;;;;;;;18.48;3.90;;;7.60;99.90;;;;;;5112466;28;20052;-57
2023/04/12 02:53:07;;;;;;;25.27;4.55;;;7.60;99.90;;;;;;5113043;28;20085;-59
2023/04/12 02:55:35;;;;;;;26.50;4.80;;;7.60;99.90;;;;;;5113503;28;20050;-60
2023/04/12 02:58:04;;;;;;;22.92;3.95;;;7.50;99.90;;;;;;5113069;28;20036;-59
2023/04/12 03:00:33;;;;;;;22.73;4.40;;;7.50;99.90;;;;;;5112791;28;20058;-56
2023/04/12 03:03:01;;;;;;;25.00;5.22;;;7.40;99.90;;;;;;5113013;28;20074;-58
2023/04/12 03:05:30;;;;;;;22.20;4.10;;;7.40;99.90;;;;;;5112774;28;20051;-58
2023/04/12 03:07:58;;;;;;;21.15;4.65;;;7.40;99.90;;;;;;5113046;28;20052;-61
2023/04/12 03:10:34;;;;;;;29.27;5.22;;;7.40;99.90;;;;;;5112836;28;20054;-60
2023/04/12 03:13:03;;;;;;;25.92;4.43;;;7.30;99.90;;;;;;5112939;28;20108;-59
2023/04/12 03:15:43;;;;;;;21.85;4.78;;;7.30;99.90;;;;;;5112827;28;20371;-59
2023/04/12 03:18:11;;;;;;;20.27;3.67;;;7.30;99.90;;;;;;5112242;28;20069;-60
2023/04/12 03:20:47;;;;;;;18.05;4.03;;;7.30;99.90;;;;;;5112466;28;20130;-54
2023/04/12 03:23:15;;;;;;;18.75;4.15;;;7.20;99.90;;;;;;5112346;28;20108;-59
2023/04/12 03:25:46;;;;;;;22.23;4.20;;;7.10;99.90;;;;;;5112910;28;20044;-59
2023/04/12 03:28:40;;;;;;;23.80;4.38;;;7.10;99.90;;;;;;5111441;28;20490;-59
2023/04/12 03:31:06;;;;;;;23.88;4.45;;;7.10;99.90;;;;;;5113825;28;20043;-57
2023/04/12 03:33:41;;;;;;;20.55;3.42;;;7.00;99.90;;;;;;5096790;28;20375;-60
2023/04/12 03:36:19;;;;;;;19.95;3.53;;;6.90;99.90;;;;;;5113822;28;20039;-62
2023/04/12 03:38:51;;;;;;;24.25;3.85;;;6.90;99.90;;;;;;5112514;28;20047;-60
2023/04/12 03:41:19;;;;;;;22.00;3.58;;;6.90;99.90;;;;;;5112444;28;20040;-57
2023/04/12 03:43:46;;;;;;;19.58;3.35;;;6.80;99.90;;;;;;5112277;28;20055;-61
2023/04/12 03:46:16;;;;;;;20.23;3.33;;;6.80;99.90;;;;;;5112499;28;20458;-61
2023/04/12 03:48:50;;;;;;;19.42;3.67;;;6.70;99.90;;;;;;5112448;28;20459;-58
2023/04/12 03:51:21;;;;;;;20.50;3.40;;;6.70;99.90;;;;;;5112588;28;20050;-61
2023/04/12 03:53:48;;;;;;;21.25;3.08;;;6.70;99.90;;;;;;5095404;28;20482;-54
2023/04/12 03:56:15;;;;;;;19.30;3.40;;;6.60;99.90;;;;;;5112024;28;20063;-59
2023/04/12 03:58:45;;;;;;;18.55;3.42;;;6.60;99.90;;;;;;5114922;28;20043;-60
2023/04/12 04:01:16;;;;;;;22.25;3.55;;;6.70;99.90;;;;;;5115931;28;20432;-61
2023/04/12 04:03:44;;;;;;;21.48;3.15;;;6.70;99.90;;;;;;5116487;28;20070;-61
2023/04/12 04:06:18;;;;;;;12.05;3.10;;;6.70;99.90;;;;;;5116600;28;20046;-57
2023/04/12 04:08:45;;;;;;;16.80;2.90;;;6.70;99.90;;;;;;5117190;28;20051;-61
2023/04/12 04:11:13;;;;;;;16.08;3.63;;;6.70;99.90;;;;;;5116279;28;20139;-60
2023/04/12 04:13:46;;;;;;;22.60;3.50;;;6.70;99.90;;;;;;5116199;28;20042;-61
2023/04/12 04:16:18;;;;;;;16.42;2.78;;;6.60;99.90;;;;;;5116032;28;20042;-59
2023/04/12 04:18:46;;;;;;;23.40;3.88;;;6.60;99.90;;;;;;5115515;28;20058;-60
2023/04/12 04:21:16;;;;;;;18.27;2.92;;;6.50;99.90;;;;;;5117104;28;20039;-60
2023/04/12 04:23:47;;;;;;;16.90;3.70;;;6.40;99.90;;;;;;5116684;28;20439;-57
2023/04/12 04:26:15;;;;;;;19.00;3.42;;;6.40;99.90;;;;;;5116779;28;20059;-61
2023/04/12 04:28:50;;;;;;;16.08;2.90;;;6.40;99.90;;;;;;5115501;28;20424;-56
2023/04/12 04:31:25;;;;;;;13.93;3.28;;;6.30;99.90;;;;;;5115202;28;20486;-60
2023/04/12 04:33:52;;;;;;;17.75;3.38;;;6.30;99.90;;;;;;5116988;28;20089;-58
2023/04/12 04:36:25;;;;;;;15.88;3.50;;;6.20;99.90;;;;;;5115628;28;20046;-57
2023/04/12 04:38:54;;;;;;;25.88;3.38;;;6.20;99.90;;;;;;5098878;28;20044;-59
2023/04/12 04:41:39;;;;;;;17.15;3.47;;;6.20;99.90;;;;;;5115937;28;20040;-58
2023/04/12 04:44:12;;;;;;;18.67;3.42;;;6.10;99.90;;;;;;5115289;28;20044;-60
2023/04/12 04:46:47;;;;;;;17.80;3.15;;;6.10;99.90;;;;;;5115096;28;20409;-59
2023/04/12 04:49:15;;;;;;;22.65;3.17;;;6.00;99.90;;;;;;5114662;28;20125;-57
2023/04/12 04:51:42;;;;;;;18.05;3.03;;;6.10;99.90;;;;;;5116692;28;20045;-60
2023/04/12 04:54:12;;;;;;;18.35;3.08;;;6.00;99.90;;;;;;5114836;28;20067;-60
2023/04/12 04:56:40;;;;;;;18.58;3.17;;;6.00;99.90;;;;;;5116277;28;20100;-59
2023/04/12 04:59:09;;;;;;;14.90;2.70;;;5.90;99.90;;;;;;5114852;28;20089;-58
2023/04/12 05:01:37;;;;;;;14.88;3.40;;;5.90;99.90;;;;;;5115023;28;20458;-58
2023/04/12 05:04:04;;;;;;;20.67;2.63;;;5.90;99.90;;;;;;5114934;28;20044;-57
2023/04/12 05:06:31;;;;;;;23.02;2.80;;;5.90;99.90;;;;;;5098344;28;20474;-59
2023/04/12 05:09:00;;;;;;;21.67;3.10;;;5.90;99.90;;;;;;5114100;28;20490;-57
2023/04/12 05:11:30;;;;;;;22.33;3.63;;;5.80;99.90;;;;;;5114454;28;20461;-59
2023/04/12 05:13:57;;;;;;;18.40;3.20;;;5.80;99.90;;;;;;5115851;28;20046;-59
2023/04/12 05:16:24;;;;;;;21.63;3.45;;;5.80;99.90;;;;;;5114910;28;20093;-60
2023/04/12 05:18:51;;;;;;;18.08;3.22;;;5.80;99.90;;;;;;5097888;28;20046;-58
2023/04/12 05:21:18;;;;;;;14.77;2.92;;;5.80;99.90;;;;;;5115637;27;20069;-57
2023/04/12 05:23:45;;;;;;;25.85;4.00;;;5.80;99.90;;;;;;5114406;28;20046;-59
2023/04/12 05:26:12;;;;;;;12.77;2.60;;;5.70;99.90;;;;;;5114619;28;20039;-61
2023/04/12 05:28:43;;;;;;;15.98;2.92;;;5.70;99.90;;;;;;5114771;28;20117;-59
2023/04/12 05:31:11;;;;;;;13.18;2.70;;;5.80;99.90;;;;;;5114140;28;20194;-60
2023/04/12 05:33:38;;;;;;;11.70;2.53;;;5.80;99.90;;;;;;5114314;28;20104;-60
2023/04/12 05:36:05;;;;;;;17.75;2.92;;;5.70;99.90;;;;;;5114020;28;20113;-60
2023/04/12 05:38:32;;;;;;;14.77;2.83;;;5.70;99.90;;;;;;5114549;28;20081;-60
2023/04/12 05:41:04;;;;;;;23.38;3.13;;;5.80;99.90;;;;;;5113880;28;20130;-58
2023/04/12 05:43:32;;;;;;;17.00;2.63;;;5.70;99.90;;;;;;5114019;28;20100;-59
2023/04/12 05:45:59;;;;;;;17.33;2.90;;;5.80;99.90;;;;;;5113864;28;20043;-56
2023/04/12 05:48:27;;;;;;;15.85;2.80;;;5.80;99.90;;;;;;5113682;28;20040;-60
2023/04/12 05:50:56;;;;;;;17.27;2.50;;;5.80;99.90;;;;;;5115134;28;20032;-60
2023/04/12 05:53:22;;;;;;;14.38;2.92;;;5.80;99.90;;;;;;5113625;28;20043;-57
2023/04/12 05:55:50;;;;;;;16.25;2.72;;;5.90;99.90;;;;;;5114236;28;20046;-59
2023/04/12 05:58:18;;;;;;;12.38;2.58;;;5.90;99.90;;;;;;5113007;28;20138;-57
2023/04/12 06:00:48;;;;;;;14.15;3.35;;;6.00;99.90;;;;;;5095577;28;20174;-60
2023/04/12 06:03:15;;;;;;;18.95;2.78;;;6.10;99.90;;;;;;5113025;28;20054;-58
2023/04/12 06:05:42;;;;;;;24.90;3.45;;;6.10;99.90;;;;;;5112894;28;20043;-58
2023/04/12 06:08:09;;;;;;;17.00;2.90;;;6.20;99.90;;;;;;5095505;28;20047;-57
2023/04/12 06:10:36;;;;;;;17.52;2.85;;;6.30;99.90;;;;;;5112715;28;20043;-56
2023/04/12 06:13:03;;;;;;;20.55;4.22;;;6.40;99.90;;;;;;5095953;28;20131;-60
2023/04/12 06:15:32;;;;;;;18.15;3.00;;;6.50;99.90;;;;;;5096067;28;20130;-58
2023/04/12 06:17:59;;;;;;;15.55;2.88;;;6.60;99.90;;;;;;5112480;28;20482;-59
2023/04/12 06:20:26;;;;;;;26.23;3.42;;;6.70;99.90;;;;;;5095119;28;20414;-62
2023/04/12 06:22:53;;;;;;;14.90;2.75;;;6.80;99.90;;;;;;5095691;28;20436;-61
2023/04/12 06:25:21;;;;;;;21.10;3.53;;;6.80;99.90;;;;;;5112862;28;20109;-60
2023/04/12 06:27:49;;;;;;;16.38;2.80;;;6.90;99.90;;;;;;5112358;28;20138;-56
2023/04/12 06:30:16;;;;;;;17.33;3.05;;;6.90;99.90;;;;;;5099051;28;20379;-58
2023/04/12 06:32:43;;;;;;;17.55;2.75;;;6.90;99.90;;;;;;5112971;28;20050;-61
2023/04/12 06:35:10;;;;;;;15.15;2.90;;;7.00;99.90;;;;;;5113571;28;20108;-61
2023/04/12 06:37:37;;;;;;;16.20;2.35;;;7.00;99.90;;;;;;5114305;28;20046;-59
2023/04/12 06:40:04;;;;;;;14.57;2.85;;;7.00;99.90;;;;;;5114638;28;20036;-59
2023/04/12 06:42:31;;;;;;;20.98;3.28;;;7.10;99.90;;;;;;5114262;28;20039;-60
2023/04/12 06:44:57;;;;;;;15.55;2.70;;;7.10;99.90;;;;;;5114628;28;20167;-60
2023/04/12 06:47:24;;;;;;;11.27;2.53;;;7.10;99.90;;;;;;5113169;28;20035;-57
2023/04/12 06:49:54;;;;;;;17.20;2.80;;;7.10;99.90;;;;;;5114470;28;20047;-61
2023/04/12 06:52:21;;;;;;;13.70;2.85;;;7.20;99.90;;;;;;5114091;28;20036;-60
2023/04/12 06:54:48;;;;;;;16.67;3.00;;;7.20;99.90;;;;;;5114330;28;20071;-55
2023/04/12 06:57:15;;;;;;;17.60;3.28;;;7.30;99.90;;;;;;5114171;28;20046;-62
2023/04/12 06:59:42;;;;;;;16.73;3.33;;;7.30;99.90;;;;;;5114048;28;20035;-57
2023/04/12 07:02:08;;;;;;;14.85;2.50;;;7.30;99.90;;;;;;5113810;28;20066;-60
2023/04/12 07:04:35;;;;;;;20.17;3.13;;;7.30;99.90;;;;;;5113970;28;20044;-60
2023/04/12 07:07:02;;;;;;;13.55;2.60;;;7.40;99.90;;;;;;5114216;28;20071;-61
2023/04/12 07:09:29;;;;;;;12.80;2.33;;;7.50;99.90;;;;;;5113652;28;20040;-59
2023/04/12 07:11:55;;;;;;;16.83;2.83;;;7.50;99.90;;;;;;5112539;28;20050;-61
2023/04/12 07:14:22;;;;;;;13.38;2.60;;;7.50;99.90;;;;;;5114668;28;20040;-61
2023/04/12 07:16:49;;;;;;;15.90;2.78;;;7.50;99.90;;;;;;5113969;28;20043;-60
2023/04/12 07:19:16;;;;;;;12.13;2.45;;;7.50;99.90;;;;;;5113869;28;20035;-61
2023/04/12 07:21:43;;;;;;;16.33;2.70;;;7.50;99.90;;;;;;5114144;28;20038;-60
2023/04/12 07:24:10;;;;;;;15.73;2.83;;;7.60;99.90;;;;;;5112584;28;20040;-60
2023/04/12 07:26:36;;;;;;;19.27;3.72;;;7.70;99.90;;;;;;5112513;28;20043;-60
2023/04/12 07:29:03;;;;;;;13.00;2.30;;;7.80;99.90;;;;;;5114373;28;20100;-56
2023/04/12 07:31:30;;;;;;;14.90;3.42;;;7.90;99.90;;;;;;5114762;28;20382;-59
2023/04/12 07:33:57;;;;;;;15.30;3.00;;;7.90;99.90;;;;;;5117857;28;20067;-58
2023/04/12 07:36:26;;;;;;;13.75;2.90;;;8.00;99.90;;;;;;5118364;28;20040;-60
2023/04/12 07:38:54;;;;;;;16.35;2.80;;;8.00;99.90;;;;;;5117981;28;20356;-59
2023/04/12 07:41:22;;;;;;;11.73;2.40;;;8.00;99.90;;;;;;5117647;28;20506;-59
2023/04/12 07:43:48;;;;;;;13.98;2.88;;;8.00;99.90;;;;;;5116605;28;20460;-60
2023/04/12 07:46:15;;;;;;;18.83;4.00;;;7.90;99.90;;;;;;5117919;28;20092;-61
2023/04/12 07:48:42;;;;;;;17.85;3.08;;;7.90;99.90;;;;;;5117354;27;20044;-61
2023/04/12 07:51:09;;;;;;;13.57;2.55;;;7.90;99.90;;;;;;5117245;28;20097;-60
2023/04/12 07:53:35;;;;;;;10.73;2.42;;;7.90;99.90;;;;;;5117551;28;20075;-60
2023/04/12 07:56:05;;;;;;;17.23;3.95;;;7.80;99.90;;;;;;5117906;28;20044;-60
2023/04/12 07:58:32;;;;;;;15.13;2.92;;;7.90;99.90;;;;;;5116846;28;20051;-61
2023/04/12 08:00:59;;;;;;;14.90;2.50;;;7.90;99.90;;;;;;5117094;28;20096;-57
2023/04/12 08:03:27;;;;;;;12.40;2.47;;;7.90;99.90;;;;;;5116209;28;20047;-58
2023/04/12 08:05:54;;;;;;;18.52;2.78;;;7.90;99.90;;;;;;5117265;27;20092;-60
2023/04/12 08:08:21;;;;;;;10.63;2.22;;;7.90;99.90;;;;;;5117163;28;20048;-59
2023/04/12 08:10:48;;;;;;;13.35;2.60;;;7.90;99.90;;;;;;5116953;28;20051;-60
2023/04/12 08:13:15;;;;;;;14.95;2.45;;;8.00;99.90;;;;;;5117130;28;20098;-60
2023/04/12 08:15:46;;;;;;;11.93;2.42;;;8.00;99.90;;;;;;5117463;28;20036;-60
2023/04/12 08:18:13;;;;;;;14.00;2.70;;;8.10;99.90;;;;;;5117036;28;20097;-60
2023/04/12 08:20:40;;;;;;;17.05;2.65;;;8.10;99.90;;;;;;5116872;28;20138;-60
2023/04/12 08:23:07;;;;;;;10.32;2.10;;;8.10;99.90;;;;;;5116703;28;20070;-60
2023/04/12 08:25:34;;;;;;;8.43;1.98;;;8.20;99.90;;;;;;5116936;28;20043;-57
2023/04/12 08:28:00;;;;;;;13.07;2.80;;;8.20;99.90;;;;;;5116767;28;20043;-59
2023/04/12 08:30:27;;;;;;;12.55;2.17;;;8.20;99.90;;;;;;5116828;28;20035;-57
2023/04/12 08:32:54;;;;;;;12.35;2.28;;;8.30;99.90;;;;;;5116471;28;20046;-56
2023/04/12 08:35:21;;;;;;;13.75;3.13;;;8.30;99.90;;;;;;5116413;28;20046;-58
2023/04/12 08:37:48;;;;;;;9.27;2.80;;;8.30;99.90;;;;;;5116323;28;20035;-58
2023/04/12 08:40:15;;;;;;;14.02;3.08;;;8.30;99.90;;;;;;5116897;28;20123;-60
2023/04/12 08:42:42;;;;;;;10.70;2.00;;;8.40;99.90;;;;;;5115397;28;20467;-55
2023/04/12 08:45:09;;;;;;;12.43;2.67;;;8.50;99.90;;;;;;5116286;28;20377;-60
2023/04/12 08:47:36;;;;;;;8.68;2.45;;;8.60;99.90;;;;;;5116786;28;20100;-59
2023/04/12 08:50:02;;;;;;;16.33;2.88;;;8.80;99.90;;;;;;5116213;27;20048;-59
2023/04/12 08:52:29;;;;;;;14.27;2.53;;;9.00;99.90;;;;;;5115710;28;20500;-60
2023/04/12 08:54:56;;;;;;;11.95;2.25;;;9.20;99.90;;;;;;5116166;28;20075;-58
2023/04/12 08:57:23;;;;;;;9.93;2.38;;;9.20;99.90;;;;;;5116454;28;20039;-61
2023/04/12 08:59:50;;;;;;;11.20;2.83;;;9.40;99.90;;;;;;5116298;28;20115;-60
2023/04/12 09:02:17;;;;;;;9.50;2.25;;;9.40;99.90;;;;;;5115638;27;20093;-61
2023/04/12 09:04:43;;;;;;;9.88;2.30;;;9.40;99.90;;;;;;5114534;28;20043;-57
2023/04/12 09:07:10;;;;;;;11.93;2.22;;;9.30;99.90;;;;;;5114241;28;20031;-60
2023/04/12 09:09:37;;;;;;;5.00;1.50;;;8.90;99.90;;;;;;5112992;28;20043;-59
2023/04/12 09:12:04;;;;;;;7.70;1.63;;;8.50;99.90;;;;;;5114443;28;20043;-57
2023/04/12 09:14:31;;;;;;;9.43;1.70;;;8.20;99.90;;;;;;5114239;28;20078;-57
2023/04/12 09:16:58;;;;;;;8.50;1.70;;;8.00;99.90;;;;;;5114126;28;20036;-58
2023/04/12 09:19:24;;;;;;;5.50;1.02;;;7.90;99.90;;;;;;5115512;28;20039;-57
2023/04/12 09:21:52;;;;;;;6.10;1.70;;;7.70;99.90;;;;;;5116097;28;20036;-59
2023/04/12 09:24:22;;;;;;;4.15;1.10;;;7.70;99.90;;;;;;5115633;28;20047;-58
2023/04/12 09:26:49;;;;;;;3.63;1.00;;;7.60;99.90;;;;;;5116143;28;20043;-60
2023/04/12 09:29:16;;;;;;;3.33;0.98;;;7.70;99.90;;;;;;5115291;28;20044;-60
2023/04/12 09:31:43;;;;;;;5.65;1.30;;;7.70;99.90;;;;;;5115317;28;20040;-60
2023/04/12 09:34:10;;;;;;;4.43;0.98;;;7.70;99.90;;;;;;5115446;28;20043;-59
2023/04/12 09:36:37;;;;;;;5.47;1.20;;;7.70;99.90;;;;;;5113943;28;20433;-56
2023/04/12 09:39:04;;;;;;;4.53;1.02;;;7.70;99.90;;;;;;5115699;27;20101;-60
2023/04/12 09:41:31;;;;;;;6.40;1.10;;;7.80;99.90;;;;;;5115497;28;20039;-60
2023/04/12 09:43:58;;;;;;;5.43;1.05;;;7.80;99.90;;;;;;5115242;28;20071;-60
2023/04/12 09:46:25;;;;;;;7.63;1.00;;;7.80;99.90;;;;;;5115762;28;20074;-57
2023/04/12 09:48:52;;;;;;;9.63;1.25;;;7.80;99.90;;;;;;5115016;28;20052;-58
2023/04/12 09:51:22;;;;;;;6.70;1.10;;;7.90;99.90;;;;;;5115126;28;20044;-60
2023/04/12 09:53:48;;;;;;;9.43;1.10;;;8.00;99.90;;;;;;5115426;28;20043;-58
2023/04/12 09:56:15;;;;;;;5.60;1.02;;;8.10;99.90;;;;;;5114473;28;20115;-61
2023/04/12 09:58:42;;;;;;;5.25;1.20;;;8.10;99.90;;;;;;5115234;28;20455;-60
2023/04/12 10:01:09;;;;;;;7.75;1.23;;;8.20;99.90;;;;;;5115250;28;20035;-60
2023/04/12 10:03:37;;;;;;;7.30;1.90;;;8.30;99.90;;;;;;5115014;28;20071;-59
2023/04/12 10:06:04;;;;;;;7.20;0.98;;;8.40;99.90;;;;;;5115396;28;20047;-59
2023/04/12 10:08:31;;;;;;;7.22;0.98;;;8.60;99.90;;;;;;5115364;28;20118;-60
2023/04/12 10:10:58;;;;;;;6.07;1.27;;;8.80;99.90;;;;;;5114424;28;20039;-60
2023/04/12 10:13:25;;;;;;;5.95;2.17;;;8.90;99.90;;;;;;5114911;27;20040;-57
2023/04/12 10:15:52;;;;;;;70.18;44.40;;;9.00;99.90;;;;;;5114969;28;20033;-59
2023/04/12 10:18:19;;;;;;;6.53;2.72;;;9.00;99.90;;;;;;5113487;28;20035;-59
2023/04/12 10:20:46;;;;;;;4.40;1.92;;;9.10;99.90;;;;;;5114710;28;20118;-60
2023/04/12 10:23:16;;;;;;;4.90;1.10;;;9.20;99.90;;;;;;5113789;28;20036;-61
2023/04/12 10:25:43;;;;;;;8.85;1.33;;;9.20;99.90;;;;;;5114360;28;20040;-59
2023/04/12 10:28:10;;;;;;;4.70;1.20;;;9.40;99.90;;;;;;5114745;28;20094;-61
2023/04/12 10:30:36;;;;;;;6.55;1.48;;;9.50;99.90;;;;;;5114224;28;20143;-59
2023/04/12 10:33:03;;;;;;;5.82;1.25;;;9.70;99.90;;;;;;5114311;28;20490;-57
2023/04/12 10:35:31;;;;;;;4.35;1.20;;;9.90;99.90;;;;;;5114158;28;20036;-60
2023/04/12 10:38:00;;;;;;;6.03;1.17;;;10.00;99.90;;;;;;5115065;28;20043;-60
2023/04/12 10:40:27;;;;;;;6.18;1.15;;;10.00;99.90;;;;;;5114414;28;20490;-61
2023/04/12 10:42:54;;;;;;;5.90;1.20;;;10.00;99.90;;;;;;5114023;28;20039;-60
2023/04/12 10:45:21;;;;;;;6.80;1.50;;;10.10;99.90;;;;;;5112885;28;20482;-61
2023/04/12 10:47:48;;;;;;;7.07;2.13;;;10.20;99.90;;;;;;5114106;28;20047;-59
2023/04/12 10:50:14;;;;;;;8.75;1.70;;;10.40;99.90;;;;;;5113918;28;20059;-60
2023/04/12 10:52:41;;;;;;;7.38;1.70;;;10.40;99.90;;;;;;5114399;28;20043;-60
2023/04/12 10:55:08;;;;;;;10.77;1.80;;;10.40;99.30;;;;;;5114091;28;20043;-59
2023/04/12 10:57:35;;;;;;;10.10;1.77;;;10.30;99.40;;;;;;5112788;28;20032;-57
2023/04/12 11:00:02;;;;;;;15.98;2.13;;;10.30;99.90;;;;;;5113312;28;20421;-61
2023/04/12 11:02:33;;;;;;;8.55;1.98;;;10.30;99.30;;;;;;5096020;28;20048;-59
2023/04/12 11:05:00;;;;;;;32.47;2.88;;;10.30;99.90;;;;;;5114307;28;20120;-58
2023/04/12 11:07:47;;;;;;;10.93;2.25;;;10.30;99.90;;;;;;5114110;28;20093;-60
2023/04/12 11:10:32;;;;;;;14.05;2.15;;;10.30;99.90;;;;;;5114046;28;20070;-59
2023/04/12 11:13:00;;;;;;;10.40;2.03;;;10.30;99.90;;;;;;5113819;28;20044;-58
2023/04/12 11:15:26;;;;;;;8.15;1.83;;;10.30;99.90;;;;;;5113670;28;20039;-60
2023/04/12 11:17:56;;;;;;;7.75;1.80;;;10.40;99.90;;;;;;5112650;28;20498;-59
2023/04/12 11:20:23;;;;;;;8.95;1.65;;;10.40;99.60;;;;;;5113894;28;20040;-61
2023/04/12 11:22:50;;;;;;;7.75;1.80;;;10.50;98.90;;;;;;5114106;28;20079;-61
2023/04/12 11:25:17;;;;;;;8.43;2.00;;;10.50;98.80;;;;;;5112957;28;20067;-59
2023/04/12 11:27:44;;;;;;;24.00;12.13;;;10.60;97.50;;;;;;5114368;28;20059;-57
2023/04/12 11:30:11;;;;;;;6.93;1.70;;;10.70;96.40;;;;;;5113787;28;20059;-60
2023/04/12 11:32:40;;;;;;;16.58;1.92;;;10.70;97.70;;;;;;5113741;28;20040;-58
2023/04/12 11:35:07;;;;;;;14.00;2.25;;;10.80;96.10;;;;;;5113462;28;20089;-60
2023/04/12 11:37:35;;;;;;;16.58;1.90;;;10.70;96.70;;;;;;5112952;28;20497;-60
2023/04/12 11:40:04;;;;;;;9.85;1.85;;;10.80;97.50;;;;;;5113466;28;20065;-60
2023/04/12 11:42:31;;;;;;;18.77;2.58;;;10.90;97.70;;;;;;5113435;28;20043;-61
2023/04/12 11:44:58;;;;;;;11.15;2.05;;;11.00;97.20;;;;;;5113549;28;20449;-60
2023/04/12 11:47:35;;;;;;;11.15;2.28;;;11.10;97.20;;;;;;5113763;28;20069;-62
2023/04/12 11:50:02;;;;;;;6.68;1.60;;;11.10;97.30;;;;;;5113403;28;20379;-62
2023/04/12 11:52:29;;;;;;;9.15;2.00;;;11.00;97.70;;;;;;5113336;28;20068;-60
2023/04/12 11:54:57;;;;;;;12.88;2.80;;;11.00;97.30;;;;;;5113684;28;20032;-62
2023/04/12 11:57:24;;;;;;;11.48;2.20;;;10.90;97.50;;;;;;5111993;28;20044;-61
2023/04/12 11:59:51;;;;;;;9.95;2.08;;;11.00;97.80;;;;;;5112201;28;20374;-59
2023/04/12 12:02:19;;;;;;;14.48;2.00;;;11.10;98.00;;;;;;5111804;28;20032;-59
2023/04/12 12:04:50;;;;;;;11.80;2.35;;;11.20;97.70;;;;;;5106991;28;20044;-60
2023/04/12 12:07:18;;;;;;;10.00;2.50;;;11.20;97.30;;;;;;5104200;28;20508;-57
2023/04/12 12:09:48;;;;;;;12.23;2.30;;;11.30;98.00;;;;;;5111657;28;20417;-59
2023/04/12 12:12:15;;;;;;;20.98;2.60;;;11.50;98.20;;;;;;5112750;28;20174;-57
2023/04/12 12:14:41;;;;;;;13.77;2.40;;;11.60;98.60;;;;;;5112609;28;20067;-59
2023/04/12 12:17:09;;;;;;;10.25;2.67;;;11.60;97.80;;;;;;5111721;28;20040;-59
2023/04/12 12:19:36;;;;;;;13.70;2.97;;;11.50;97.50;;;;;;5115184;28;20097;-60
2023/04/12 12:22:03;;;;;;;14.30;3.25;;;11.30;98.20;;;;;;5116491;28;20032;-59
2023/04/12 12:24:29;;;;;;;15.05;2.95;;;11.00;99.40;;;;;;5116387;28;20039;-59
2023/04/12 12:26:57;;;;;;;19.42;3.80;;;10.80;99.90;;;;;;5116326;28;20050;-60
2023/04/12 12:29:25;;;;;;;10.25;2.60;;;10.40;99.90;;;;;;5115022;28;20398;-59
2023/04/12 12:31:52;;;;;;;12.57;3.08;;;9.90;99.90;;;;;;5116331;28;20047;-58
2023/04/12 12:34:19;;;;;;;34.13;20.00;;;9.30;99.90;;;;;;5116199;28;20127;-58
2023/04/12 12:36:45;;;;;;;13.77;4.00;;;8.90;99.90;;;;;;5115810;28;20036;-60
2023/04/12 12:39:14;;;;;;;14.52;2.30;;;8.60;99.90;;;;;;5116367;28;20036;-60
2023/04/12 12:41:41;;;;;;;16.17;3.60;;;8.60;99.90;;;;;;5116263;28;20589;-59
2023/04/12 12:44:09;;;;;;;35.25;4.38;;;8.60;99.90;;;;;;5116185;28;20048;-57
2023/04/12 12:46:36;;;;;;;17.55;3.00;;;8.70;99.90;;;;;;5115742;27;20042;-59
2023/04/12 12:49:06;;;;;;;19.40;3.08;;;8.80;99.90;;;;;;5115717;28;20052;-59
2023/04/12 12:51:33;;;;;;;17.58;2.97;;;8.90;99.90;;;;;;5115931;28;20051;-58